This is the latest recevied weather packets stored in our database for station/object IZ1UQG-N2. If no packets are shown the sender has not sent any weather packets the latest 10 day(s).
| Time | Temp. | Humidity | Pressure | Rain* | Wind** | Luminosity | Snow |
|---|---|---|---|---|---|---|---|
| 1787481043 | 23.89° C | 63% | 1017.8 hPa | 0.25 mm | - | 281 W/m² | - |
| 1787480981 | 23.89° C | 63% | 1017.8 hPa | 0.25 mm | - | 281 W/m² | - |
| 1787480921 | 23.33° C | 65% | 1017.8 hPa | 0.25 mm | - | 285 W/m² | - |
| 1787480683 | 23.33° C | 65% | 1017.7 hPa | 0.25 mm | - | 287 W/m² | - |
| 1787480622 | 23.33° C | 65% | 1017.7 hPa | 0.25 mm | - | 287 W/m² | - |
| 1787480562 | 23.33° C | 64% | 1017.8 hPa | 0.25 mm | - | 297 W/m² | - |
| 1787480322 | 23.33° C | 64% | 1017.8 hPa | 0.25 mm | - | 297 W/m² | - |
| 1787480262 | 23.33° C | 64% | 1017.8 hPa | 0.25 mm | - | 297 W/m² | - |
| 1787480202 | 23.33° C | 64% | 1017.8 hPa | 0.25 mm | - | 306 W/m² | - |
| 1787479961 | 23.33° C | 64% | 1018 hPa | 0.25 mm | - | 306 W/m² | - |
| 1787479903 | 23.33° C | 64% | 1018 hPa | 0.25 mm | - | 306 W/m² | - |
| 1787479843 | 23.33° C | 64% | 1018 hPa | 0.25 mm | - | 313 W/m² | - |
| 1787479602 | 23.33° C | 64% | 1017.9 hPa | 0.25 mm | - | 332 W/m² | - |
| 1787479542 | 23.33° C | 64% | 1017.9 hPa | 0.25 mm | - | 332 W/m² | - |
| 1787479481 | 23.89° C | 62% | 1017.8 hPa | 0.25 mm | - | 380 W/m² | - |
| 1787479242 | 23.89° C | 62% | 1017.9 hPa | 0.25 mm | - | 362 W/m² | - |
| 1787479181 | 23.89° C | 62% | 1017.9 hPa | 0.25 mm | - | 362 W/m² | - |
| 1787479121 | 23.89° C | 62% | 1018.1 hPa | 0.25 mm | - | 737 W/m² | - |
| 1787478942 | 23.89° C | 62% | 1018 hPa | 0.25 mm | - | 448 W/m² | - |
| 1787478882 | 23.89° C | 62% | 1018 hPa | 0.25 mm | - | 448 W/m² | - |
| 1787478822 | 23.33° C | 63% | 1018.1 hPa | 0.25 mm | - | 877 W/m² | - |
| 1787478582 | 23.33° C | 63% | 1018.2 hPa | 0.25 mm | - | 890 W/m² | - |
| 1787478521 | 23.33° C | 63% | 1018.2 hPa | 0.25 mm | - | 890 W/m² | - |
| 1787478463 | 23.33° C | 62% | 1018 hPa | 0.25 mm | - | 642 W/m² | - |
| 1787478403 | 23.33° C | 62% | 1018.1 hPa | 0.25 mm | - | 642 W/m² | - |
* Rain latest hour (hover to see other rain measurements)
** Current wind speed in m/s (hover to see current wind gust speed)